KMDT/MDT METAR and TAF weather

Enter ICAO airport designator
Station Type Date Time Source
KMDT METAR 2020/07/12 02:56 UTC NOAA

KMDT 120256Z 28009KT 10SM CLR 25/18 A2974 RMK AO2 SLP070 T02500178 52012


Station Type Date Time Source
KMDT Decoded METAR 2020/07/12 02:56 UTC NOAA

HARRISBURG INTERNATIONAL AIRPORT, PA, United States (KMDT) 40-12N 076-46W 95M
Jul 11, 2020 - 10:56 PM EDT / 2020.07.12 0256 UTC
Wind: from the W (280 degrees) at 10 MPH (9 KT):0
Visibility: 10 mile(s):0
Sky conditions: clear
Temperature: 77.0 F (25.0 C)
Dew Point: 64.0 F (17.8 C)
Relative Humidity: 64%
Pressure (altimeter): 29.74 in. Hg (1007 hPa)
Pressure tendency: 0.04 inches (1.2 hPa) higher than three hours ago
ob: KMDT 120256Z 28009KT 10SM CLR 25/18 A2974 RMK AO2 SLP070 T02500178 52012
cycle: 3

Station Type Date Time Source
KMDT TAF 2020/07/11 23:34 UTC NOAA

TAF
AMD KMDT 112231Z 1123/1218 27011G23KT P6SM VCSH FEW030 BKN070
FM120000 28010KT P6SM SCT050
FM120500 29011KT P6SM SKC
FM120700 30007KT P6SM SKC
FM121500 28006KT P6SM SCT250

Example: see airport list